sensor_id;sensor_type;location;lat;lon;timestamp;P1;durP1;ratioP1;P2;durP2;ratioP2
15327;SDS011;7764;51.430;6.840;2023-07-02T00:02:13;8.88;;;4.60;;
15327;SDS011;7764;51.430;6.840;2023-07-02T00:04:40;9.82;;;4.80;;
15327;SDS011;7764;51.430;6.840;2023-07-02T00:07:07;8.55;;;4.30;;
15327;SDS011;7764;51.430;6.840;2023-07-02T00:09:34;8.25;;;4.32;;
15327;SDS011;7764;51.430;6.840;2023-07-02T00:12:01;11.85;;;4.82;;
15327;SDS011;7764;51.430;6.840;2023-07-02T00:14:28;10.27;;;4.72;;
15327;SDS011;7764;51.430;6.840;2023-07-02T00:16:56;8.77;;;4.80;;
15327;SDS011;7764;51.430;6.840;2023-07-02T00:19:23;8.68;;;4.60;;
15327;SDS011;7764;51.430;6.840;2023-07-02T00:21:50;8.68;;;4.50;;
15327;SDS011;7764;51.430;6.840;2023-07-02T00:24:18;6.93;;;4.50;;
15327;SDS011;7764;51.430;6.840;2023-07-02T00:26:45;8.88;;;4.60;;
15327;SDS011;7764;51.430;6.840;2023-07-02T00:29:12;7.65;;;4.57;;
15327;SDS011;7764;51.430;6.840;2023-07-02T00:31:39;8.30;;;4.40;;
15327;SDS011;7764;51.430;6.840;2023-07-02T00:34:07;8.43;;;4.57;;
15327;SDS011;7764;51.430;6.840;2023-07-02T00:36:34;11.05;;;4.60;;
15327;SDS011;7764;51.430;6.840;2023-07-02T00:39:01;9.70;;;4.68;;
15327;SDS011;7764;51.430;6.840;2023-07-02T00:41:28;10.45;;;5.07;;
15327;SDS011;7764;51.430;6.840;2023-07-02T00:43:55;9.85;;;4.50;;
15327;SDS011;7764;51.430;6.840;2023-07-02T00:46:22;9.27;;;5.00;;
15327;SDS011;7764;51.430;6.840;2023-07-02T00:48:51;8.55;;;5.00;;
15327;SDS011;7764;51.430;6.840;2023-07-02T00:51:20;8.93;;;5.47;;
15327;SDS011;7764;51.430;6.840;2023-07-02T00:53:49;9.48;;;4.90;;
15327;SDS011;7764;51.430;6.840;2023-07-02T00:56:17;10.30;;;5.50;;
15327;SDS011;7764;51.430;6.840;2023-07-02T00:58:45;11.85;;;5.60;;
15327;SDS011;7764;51.430;6.840;2023-07-02T01:01:16;8.20;;;5.13;;
15327;SDS011;7764;51.430;6.840;2023-07-02T01:03:50;13.13;;;5.70;;
15327;SDS011;7764;51.430;6.840;2023-07-02T01:06:22;11.32;;;5.75;;
15327;SDS011;7764;51.430;6.840;2023-07-02T01:08:51;8.65;;;5.50;;
15327;SDS011;7764;51.430;6.840;2023-07-02T01:11:20;8.48;;;5.07;;
15327;SDS011;7764;51.430;6.840;2023-07-02T01:13:49;11.95;;;5.75;;
15327;SDS011;7764;51.430;6.840;2023-07-02T01:16:19;10.55;;;5.30;;
15327;SDS011;7764;51.430;6.840;2023-07-02T01:18:47;12.63;;;5.90;;
15327;SDS011;7764;51.430;6.840;2023-07-02T01:21:17;8.77;;;5.50;;
15327;SDS011;7764;51.430;6.840;2023-07-02T01:23:44;10.60;;;5.38;;
15327;SDS011;7764;51.430;6.840;2023-07-02T01:26:11;11.98;;;5.75;;
15327;SDS011;7764;51.430;6.840;2023-07-02T01:28:39;12.85;;;5.85;;
15327;SDS011;7764;51.430;6.840;2023-07-02T01:31:07;13.40;;;6.38;;
15327;SDS011;7764;51.430;6.840;2023-07-02T01:33:34;10.18;;;5.18;;
15327;SDS011;7764;51.430;6.840;2023-07-02T01:36:01;10.18;;;5.40;;
15327;SDS011;7764;51.430;6.840;2023-07-02T01:38:30;11.25;;;5.65;;
15327;SDS011;7764;51.430;6.840;2023-07-02T01:40:56;11.77;;;6.35;;
15327;SDS011;7764;51.430;6.840;2023-07-02T01:43:23;14.02;;;6.10;;
15327;SDS011;7764;51.430;6.840;2023-07-02T01:45:50;9.23;;;5.65;;
15327;SDS011;7764;51.430;6.840;2023-07-02T01:48:17;14.30;;;6.47;;
15327;SDS011;7764;51.430;6.840;2023-07-02T01:50:44;14.15;;;6.40;;
15327;SDS011;7764;51.430;6.840;2023-07-02T01:53:11;12.95;;;6.38;;
15327;SDS011;7764;51.430;6.840;2023-07-02T01:55:39;12.20;;;6.60;;
15327;SDS011;7764;51.430;6.840;2023-07-02T01:58:06;14.95;;;6.97;;
15327;SDS011;7764;51.430;6.840;2023-07-02T02:00:33;12.95;;;6.68;;
15327;SDS011;7764;51.430;6.840;2023-07-02T02:03:00;13.35;;;7.07;;
15327;SDS011;7764;51.430;6.840;2023-07-02T02:05:27;14.52;;;6.97;;
15327;SDS011;7764;51.430;6.840;2023-07-02T02:07:53;15.68;;;7.60;;
15327;SDS011;7764;51.430;6.840;2023-07-02T02:10:20;16.50;;;8.30;;
15327;SDS011;7764;51.430;6.840;2023-07-02T02:12:49;18.30;;;8.57;;
15327;SDS011;7764;51.430;6.840;2023-07-02T02:15:15;14.10;;;7.93;;
15327;SDS011;7764;51.430;6.840;2023-07-02T02:17:42;15.75;;;7.63;;
15327;SDS011;7764;51.430;6.840;2023-07-02T02:20:20;19.70;;;7.90;;
15327;SDS011;7764;51.430;6.840;2023-07-02T02:22:47;14.00;;;8.00;;
15327;SDS011;7764;51.430;6.840;2023-07-02T02:25:14;15.07;;;7.90;;
15327;SDS011;7764;51.430;6.840;2023-07-02T02:27:41;17.05;;;8.55;;
15327;SDS011;7764;51.430;6.840;2023-07-02T02:30:10;17.15;;;8.27;;
15327;SDS011;7764;51.430;6.840;2023-07-02T02:32:37;16.65;;;8.60;;
15327;SDS011;7764;51.430;6.840;2023-07-02T02:35:06;17.13;;;8.65;;
15327;SDS011;7764;51.430;6.840;2023-07-02T02:37:34;15.75;;;8.82;;
15327;SDS011;7764;51.430;6.840;2023-07-02T02:40:02;17.98;;;8.85;;
15327;SDS011;7764;51.430;6.840;2023-07-02T02:42:30;19.38;;;9.20;;
15327;SDS011;7764;51.430;6.840;2023-07-02T02:44:57;19.35;;;9.48;;
15327;SDS011;7764;51.430;6.840;2023-07-02T02:47:25;18.05;;;9.68;;
15327;SDS011;7764;51.430;6.840;2023-07-02T02:49:52;17.70;;;8.98;;
15327;SDS011;7764;51.430;6.840;2023-07-02T02:52:19;17.92;;;9.48;;
15327;SDS011;7764;51.430;6.840;2023-07-02T02:54:46;19.40;;;10.23;;
15327;SDS011;7764;51.430;6.840;2023-07-02T02:57:13;20.55;;;10.70;;
15327;SDS011;7764;51.430;6.840;2023-07-02T02:59:40;19.15;;;9.48;;
15327;SDS011;7764;51.430;6.840;2023-07-02T03:02:06;18.50;;;10.32;;
15327;SDS011;7764;51.430;6.840;2023-07-02T03:04:35;19.80;;;10.60;;
15327;SDS011;7764;51.430;6.840;2023-07-02T03:07:06;19.33;;;10.30;;
15327;SDS011;7764;51.430;6.840;2023-07-02T03:09:33;19.90;;;10.88;;
15327;SDS011;7764;51.430;6.840;2023-07-02T03:12:00;19.20;;;10.65;;
15327;SDS011;7764;51.430;6.840;2023-07-02T03:14:27;23.08;;;11.32;;
15327;SDS011;7764;51.430;6.840;2023-07-02T03:16:53;24.80;;;13.45;;
15327;SDS011;7764;51.430;6.840;2023-07-02T03:19:20;19.00;;;11.65;;
15327;SDS011;7764;51.430;6.840;2023-07-02T03:21:49;19.65;;;11.95;;
15327;SDS011;7764;51.430;6.840;2023-07-02T03:24:17;25.70;;;12.50;;
15327;SDS011;7764;51.430;6.840;2023-07-02T03:26:44;23.90;;;12.10;;
15327;SDS011;7764;51.430;6.840;2023-07-02T03:29:11;21.15;;;11.65;;
15327;SDS011;7764;51.430;6.840;2023-07-02T03:31:38;21.77;;;11.80;;
15327;SDS011;7764;51.430;6.840;2023-07-02T03:34:06;23.92;;;12.93;;
15327;SDS011;7764;51.430;6.840;2023-07-02T03:36:34;23.00;;;12.48;;
15327;SDS011;7764;51.430;6.840;2023-07-02T03:39:03;25.77;;;13.18;;
15327;SDS011;7764;51.430;6.840;2023-07-02T03:41:30;20.60;;;12.23;;
15327;SDS011;7764;51.430;6.840;2023-07-02T03:43:57;25.10;;;13.27;;
15327;SDS011;7764;51.430;6.840;2023-07-02T03:46:25;26.77;;;13.13;;
15327;SDS011;7764;51.430;6.840;2023-07-02T03:48:52;26.23;;;13.48;;
15327;SDS011;7764;51.430;6.840;2023-07-02T03:51:19;23.88;;;12.63;;
15327;SDS011;7764;51.430;6.840;2023-07-02T03:53:46;25.20;;;13.45;;
15327;SDS011;7764;51.430;6.840;2023-07-02T03:56:16;26.15;;;13.15;;
15327;SDS011;7764;51.430;6.840;2023-07-02T03:58:43;22.90;;;13.10;;
15327;SDS011;7764;51.430;6.840;2023-07-02T04:01:10;21.92;;;12.60;;
15327;SDS011;7764;51.430;6.840;2023-07-02T04:03:37;25.08;;;13.77;;
15327;SDS011;7764;51.430;6.840;2023-07-02T04:06:04;27.77;;;13.70;;
15327;SDS011;7764;51.430;6.840;2023-07-02T04:08:31;24.85;;;13.98;;
15327;SDS011;7764;51.430;6.840;2023-07-02T04:10:59;28.40;;;14.50;;
15327;SDS011;7764;51.430;6.840;2023-07-02T04:13:27;24.42;;;14.27;;
15327;SDS011;7764;51.430;6.840;2023-07-02T04:15:54;23.58;;;13.20;;
15327;SDS011;7764;51.430;6.840;2023-07-02T04:18:22;28.25;;;14.93;;
15327;SDS011;7764;51.430;6.840;2023-07-02T04:20:49;25.67;;;14.35;;
15327;SDS011;7764;51.430;6.840;2023-07-02T04:23:15;29.00;;;14.95;;
15327;SDS011;7764;51.430;6.840;2023-07-02T04:25:42;24.45;;;14.82;;
15327;SDS011;7764;51.430;6.840;2023-07-02T04:28:09;28.38;;;14.50;;
15327;SDS011;7764;51.430;6.840;2023-07-02T04:30:37;25.80;;;14.43;;
15327;SDS011;7764;51.430;6.840;2023-07-02T04:33:05;27.08;;;15.05;;
15327;SDS011;7764;51.430;6.840;2023-07-02T04:35:31;31.85;;;15.60;;
15327;SDS011;7764;51.430;6.840;2023-07-02T04:37:59;29.60;;;15.73;;
15327;SDS011;7764;51.430;6.840;2023-07-02T04:40:26;27.20;;;15.15;;
15327;SDS011;7764;51.430;6.840;2023-07-02T04:42:53;27.15;;;15.48;;
15327;SDS011;7764;51.430;6.840;2023-07-02T04:45:22;25.83;;;14.15;;
15327;SDS011;7764;51.430;6.840;2023-07-02T04:47:52;31.75;;;15.50;;
15327;SDS011;7764;51.430;6.840;2023-07-02T04:50:19;27.98;;;15.23;;
15327;SDS011;7764;51.430;6.840;2023-07-02T04:52:46;29.70;;;15.38;;
15327;SDS011;7764;51.430;6.840;2023-07-02T04:55:12;26.10;;;14.50;;
15327;SDS011;7764;51.430;6.840;2023-07-02T04:57:39;29.83;;;16.60;;
15327;SDS011;7764;51.430;6.840;2023-07-02T05:00:07;28.27;;;15.70;;
15327;SDS011;7764;51.430;6.840;2023-07-02T05:02:34;29.30;;;15.73;;
15327;SDS011;7764;51.430;6.840;2023-07-02T05:05:02;28.13;;;15.82;;
15327;SDS011;7764;51.430;6.840;2023-07-02T05:07:30;29.25;;;16.00;;
15327;SDS011;7764;51.430;6.840;2023-07-02T05:09:56;28.95;;;15.40;;
15327;SDS011;7764;51.430;6.840;2023-07-02T05:12:23;29.90;;;16.85;;
15327;SDS011;7764;51.430;6.840;2023-07-02T05:14:50;28.25;;;15.50;;
15327;SDS011;7764;51.430;6.840;2023-07-02T05:17:17;31.73;;;16.48;;
15327;SDS011;7764;51.430;6.840;2023-07-02T05:19:44;26.20;;;15.95;;
15327;SDS011;7764;51.430;6.840;2023-07-02T05:22:12;28.40;;;16.17;;
15327;SDS011;7764;51.430;6.840;2023-07-02T05:24:39;30.13;;;16.65;;
15327;SDS011;7764;51.430;6.840;2023-07-02T05:27:06;32.63;;;16.10;;
15327;SDS011;7764;51.430;6.840;2023-07-02T05:29:33;28.55;;;15.88;;
15327;SDS011;7764;51.430;6.840;2023-07-02T05:32:00;28.70;;;15.38;;
15327;SDS011;7764;51.430;6.840;2023-07-02T05:34:27;31.20;;;16.83;;
15327;SDS011;7764;51.430;6.840;2023-07-02T05:36:53;29.80;;;16.83;;
15327;SDS011;7764;51.430;6.840;2023-07-02T05:39:22;26.23;;;15.45;;
15327;SDS011;7764;51.430;6.840;2023-07-02T05:41:48;28.15;;;16.70;;
15327;SDS011;7764;51.430;6.840;2023-07-02T05:44:15;28.20;;;16.35;;
15327;SDS011;7764;51.430;6.840;2023-07-02T05:46:42;28.30;;;16.35;;
15327;SDS011;7764;51.430;6.840;2023-07-02T05:49:09;29.70;;;16.20;;
15327;SDS011;7764;51.430;6.840;2023-07-02T05:51:36;26.17;;;15.60;;
15327;SDS011;7764;51.430;6.840;2023-07-02T05:54:03;27.02;;;16.13;;
15327;SDS011;7764;51.430;6.840;2023-07-02T05:56:31;26.50;;;16.25;;
15327;SDS011;7764;51.430;6.840;2023-07-02T05:58:58;27.10;;;16.80;;
15327;SDS011;7764;51.430;6.840;2023-07-02T06:01:25;28.95;;;15.77;;
15327;SDS011;7764;51.430;6.840;2023-07-02T06:03:52;26.65;;;15.20;;
15327;SDS011;7764;51.430;6.840;2023-07-02T06:06:20;24.08;;;14.40;;
15327;SDS011;7764;51.430;6.840;2023-07-02T06:08:48;25.15;;;14.65;;
15327;SDS011;7764;51.430;6.840;2023-07-02T06:11:14;24.98;;;14.50;;
15327;SDS011;7764;51.430;6.840;2023-07-02T06:13:43;26.05;;;14.65;;
15327;SDS011;7764;51.430;6.840;2023-07-02T06:16:09;24.13;;;13.73;;
15327;SDS011;7764;51.430;6.840;2023-07-02T06:18:36;22.92;;;13.35;;
15327;SDS011;7764;51.430;6.840;2023-07-02T06:21:03;23.88;;;13.10;;
15327;SDS011;7764;51.430;6.840;2023-07-02T06:23:38;22.10;;;13.05;;
15327;SDS011;7764;51.430;6.840;2023-07-02T06:26:06;23.05;;;12.93;;
15327;SDS011;7764;51.430;6.840;2023-07-02T06:28:33;26.75;;;13.05;;
15327;SDS011;7764;51.430;6.840;2023-07-02T06:31:01;23.80;;;12.18;;
15327;SDS011;7764;51.430;6.840;2023-07-02T06:33:28;23.58;;;12.07;;
15327;SDS011;7764;51.430;6.840;2023-07-02T06:35:55;21.48;;;12.45;;
15327;SDS011;7764;51.430;6.840;2023-07-02T06:38:22;25.05;;;12.88;;
15327;SDS011;7764;51.430;6.840;2023-07-02T06:40:49;22.30;;;13.02;;
15327;SDS011;7764;51.430;6.840;2023-07-02T06:43:15;23.70;;;12.57;;
15327;SDS011;7764;51.430;6.840;2023-07-02T06:45:42;20.95;;;12.32;;
15327;SDS011;7764;51.430;6.840;2023-07-02T06:48:10;21.08;;;13.32;;
15327;SDS011;7764;51.430;6.840;2023-07-02T06:50:42;20.92;;;13.13;;
15327;SDS011;7764;51.430;6.840;2023-07-02T06:53:09;21.65;;;13.23;;
15327;SDS011;7764;51.430;6.840;2023-07-02T06:55:36;19.40;;;12.52;;
15327;SDS011;7764;51.430;6.840;2023-07-02T06:58:04;19.98;;;11.80;;
15327;SDS011;7764;51.430;6.840;2023-07-02T07:00:30;24.02;;;13.18;;
15327;SDS011;7764;51.430;6.840;2023-07-02T07:02:58;19.58;;;11.70;;
15327;SDS011;7764;51.430;6.840;2023-07-02T07:05:26;22.83;;;12.55;;
15327;SDS011;7764;51.430;6.840;2023-07-02T07:07:53;22.90;;;13.40;;
15327;SDS011;7764;51.430;6.840;2023-07-02T07:10:20;25.02;;;14.18;;
15327;SDS011;7764;51.430;6.840;2023-07-02T07:12:47;20.88;;;12.93;;
15327;SDS011;7764;51.430;6.840;2023-07-02T07:15:16;19.70;;;12.68;;
15327;SDS011;7764;51.430;6.840;2023-07-02T07:17:43;24.75;;;13.15;;
15327;SDS011;7764;51.430;6.840;2023-07-02T07:20:10;21.65;;;13.07;;
15327;SDS011;7764;51.430;6.840;2023-07-02T07:22:40;21.83;;;12.20;;
15327;SDS011;7764;51.430;6.840;2023-07-02T07:25:08;22.15;;;13.02;;
15327;SDS011;7764;51.430;6.840;2023-07-02T07:27:35;20.42;;;13.32;;
15327;SDS011;7764;51.430;6.840;2023-07-02T07:30:02;18.73;;;12.20;;
15327;SDS011;7764;51.430;6.840;2023-07-02T07:32:31;23.35;;;12.88;;
15327;SDS011;7764;51.430;6.840;2023-07-02T07:34:57;19.67;;;12.15;;
15327;SDS011;7764;51.430;6.840;2023-07-02T07:37:24;19.83;;;12.10;;
15327;SDS011;7764;51.430;6.840;2023-07-02T07:39:53;20.23;;;11.48;;
15327;SDS011;7764;51.430;6.840;2023-07-02T07:42:20;16.90;;;9.85;;
15327;SDS011;7764;51.430;6.840;2023-07-02T07:44:49;17.13;;;9.70;;
15327;SDS011;7764;51.430;6.840;2023-07-02T07:47:15;18.40;;;10.13;;
15327;SDS011;7764;51.430;6.840;2023-07-02T07:49:42;16.08;;;8.95;;
15327;SDS011;7764;51.430;6.840;2023-07-02T07:52:09;19.30;;;10.43;;
15327;SDS011;7764;51.430;6.840;2023-07-02T07:54:36;18.05;;;9.52;;
15327;SDS011;7764;51.430;6.840;2023-07-02T07:57:04;16.70;;;9.88;;
15327;SDS011;7764;51.430;6.840;2023-07-02T07:59:32;17.85;;;9.95;;
15327;SDS011;7764;51.430;6.840;2023-07-02T08:01:59;17.58;;;9.30;;
15327;SDS011;7764;51.430;6.840;2023-07-02T08:04:26;18.42;;;9.95;;
15327;SDS011;7764;51.430;6.840;2023-07-02T08:06:53;19.73;;;10.65;;
15327;SDS011;7764;51.430;6.840;2023-07-02T08:09:21;16.40;;;9.00;;
15327;SDS011;7764;51.430;6.840;2023-07-02T08:11:49;16.42;;;8.35;;
15327;SDS011;7764;51.430;6.840;2023-07-02T08:14:17;16.20;;;9.13;;
15327;SDS011;7764;51.430;6.840;2023-07-02T08:16:44;16.58;;;8.45;;
15327;SDS011;7764;51.430;6.840;2023-07-02T08:19:11;16.65;;;8.77;;
15327;SDS011;7764;51.430;6.840;2023-07-02T08:21:39;17.58;;;8.05;;
15327;SDS011;7764;51.430;6.840;2023-07-02T08:24:05;19.83;;;11.00;;
15327;SDS011;7764;51.430;6.840;2023-07-02T08:26:32;15.85;;;8.75;;
15327;SDS011;7764;51.430;6.840;2023-07-02T08:28:59;15.75;;;8.40;;
15327;SDS011;7764;51.430;6.840;2023-07-02T08:31:28;14.05;;;7.57;;
15327;SDS011;7764;51.430;6.840;2023-07-02T08:33:54;14.60;;;8.10;;
15327;SDS011;7764;51.430;6.840;2023-07-02T08:36:23;13.57;;;7.80;;
15327;SDS011;7764;51.430;6.840;2023-07-02T08:38:52;14.32;;;7.68;;
15327;SDS011;7764;51.430;6.840;2023-07-02T08:41:20;15.05;;;7.97;;
15327;SDS011;7764;51.430;6.840;2023-07-02T08:43:46;13.48;;;8.00;;
15327;SDS011;7764;51.430;6.840;2023-07-02T08:46:16;15.32;;;7.93;;
15327;SDS011;7764;51.430;6.840;2023-07-02T08:48:46;15.85;;;7.68;;
15327;SDS011;7764;51.430;6.840;2023-07-02T08:51:13;17.50;;;7.78;;
15327;SDS011;7764;51.430;6.840;2023-07-02T08:53:39;12.77;;;6.93;;
15327;SDS011;7764;51.430;6.840;2023-07-02T08:56:06;14.48;;;7.43;;
15327;SDS011;7764;51.430;6.840;2023-07-02T08:58:33;13.65;;;7.75;;
15327;SDS011;7764;51.430;6.840;2023-07-02T09:01:04;15.27;;;7.57;;
15327;SDS011;7764;51.430;6.840;2023-07-02T09:03:32;18.33;;;7.93;;
15327;SDS011;7764;51.430;6.840;2023-07-02T09:06:00;13.48;;;7.30;;
15327;SDS011;7764;51.430;6.840;2023-07-02T09:08:27;15.57;;;8.40;;
15327;SDS011;7764;51.430;6.840;2023-07-02T09:11:04;17.05;;;7.90;;
15327;SDS011;7764;51.430;6.840;2023-07-02T09:13:41;15.35;;;7.97;;
15327;SDS011;7764;51.430;6.840;2023-07-02T09:16:21;17.80;;;8.57;;
15327;SDS011;7764;51.430;6.840;2023-07-02T09:18:58;15.02;;;8.48;;
15327;SDS011;7764;51.430;6.840;2023-07-02T09:21:37;17.38;;;9.85;;
15327;SDS011;7764;51.430;6.840;2023-07-02T09:24:15;15.80;;;7.93;;
15327;SDS011;7764;51.430;6.840;2023-07-02T09:26:44;17.38;;;8.60;;
15327;SDS011;7764;51.430;6.840;2023-07-02T09:29:11;15.93;;;8.00;;
15327;SDS011;7764;51.430;6.840;2023-07-02T09:31:45;18.15;;;8.75;;
15327;SDS011;7764;51.430;6.840;2023-07-02T09:34:12;14.10;;;8.45;;
15327;SDS011;7764;51.430;6.840;2023-07-02T09:36:41;18.17;;;8.60;;
15327;SDS011;7764;51.430;6.840;2023-07-02T09:39:11;17.20;;;8.85;;
15327;SDS011;7764;51.430;6.840;2023-07-02T09:41:39;17.90;;;8.93;;
15327;SDS011;7764;51.430;6.840;2023-07-02T09:44:07;17.33;;;8.75;;
15327;SDS011;7764;51.430;6.840;2023-07-02T09:46:36;16.08;;;8.55;;
15327;SDS011;7764;51.430;6.840;2023-07-02T09:49:06;16.42;;;8.43;;
15327;SDS011;7764;51.430;6.840;2023-07-02T09:51:41;17.05;;;8.73;;
15327;SDS011;7764;51.430;6.840;2023-07-02T09:54:09;19.17;;;9.77;;
15327;SDS011;7764;51.430;6.840;2023-07-02T09:56:36;14.48;;;8.45;;
15327;SDS011;7764;51.430;6.840;2023-07-02T09:59:03;14.57;;;8.38;;
15327;SDS011;7764;51.430;6.840;2023-07-02T10:01:30;17.08;;;8.73;;
15327;SDS011;7764;51.430;6.840;2023-07-02T10:03:57;15.65;;;7.75;;
15327;SDS011;7764;51.430;6.840;2023-07-02T10:06:24;13.68;;;7.70;;
15327;SDS011;7764;51.430;6.840;2023-07-02T10:08:56;15.93;;;8.00;;
15327;SDS011;7764;51.430;6.840;2023-07-02T10:11:32;16.58;;;7.55;;
15327;SDS011;7764;51.430;6.840;2023-07-02T10:14:00;14.25;;;7.22;;
15327;SDS011;7764;51.430;6.840;2023-07-02T10:16:27;15.20;;;7.60;;
15327;SDS011;7764;51.430;6.840;2023-07-02T10:19:07;14.70;;;7.70;;
15327;SDS011;7764;51.430;6.840;2023-07-02T10:21:34;15.23;;;7.43;;
15327;SDS011;7764;51.430;6.840;2023-07-02T10:24:09;13.13;;;7.05;;
15327;SDS011;7764;51.430;6.840;2023-07-02T10:26:37;15.00;;;6.97;;
15327;SDS011;7764;51.430;6.840;2023-07-02T10:29:05;19.15;;;9.10;;
15327;SDS011;7764;51.430;6.840;2023-07-02T10:31:32;16.00;;;7.22;;
15327;SDS011;7764;51.430;6.840;2023-07-02T10:34:00;14.07;;;7.28;;
15327;SDS011;7764;51.430;6.840;2023-07-02T10:36:27;13.88;;;7.35;;
15327;SDS011;7764;51.430;6.840;2023-07-02T10:38:53;11.40;;;7.32;;
15327;SDS011;7764;51.430;6.840;2023-07-02T10:41:30;13.73;;;7.20;;
15327;SDS011;7764;51.430;6.840;2023-07-02T10:44:05;13.75;;;7.60;;
15327;SDS011;7764;51.430;6.840;2023-07-02T10:46:33;14.48;;;7.53;;
15327;SDS011;7764;51.430;6.840;2023-07-02T10:49:00;14.30;;;7.88;;
15327;SDS011;7764;51.430;6.840;2023-07-02T10:51:27;15.40;;;7.32;;
15327;SDS011;7764;51.430;6.840;2023-07-02T10:53:57;11.40;;;6.90;;
15327;SDS011;7764;51.430;6.840;2023-07-02T10:56:25;21.40;;;13.52;;
15327;SDS011;7764;51.430;6.840;2023-07-02T10:58:54;13.70;;;6.78;;
15327;SDS011;7764;51.430;6.840;2023-07-02T11:01:24;12.95;;;6.78;;
15327;SDS011;7764;51.430;6.840;2023-07-02T11:03:55;14.07;;;6.85;;
15327;SDS011;7764;51.430;6.840;2023-07-02T11:06:23;14.90;;;7.45;;
15327;SDS011;7764;51.430;6.840;2023-07-02T11:08:51;13.23;;;6.93;;
15327;SDS011;7764;51.430;6.840;2023-07-02T11:11:19;13.40;;;7.00;;
15327;SDS011;7764;51.430;6.840;2023-07-02T11:13:47;12.27;;;6.93;;
15327;SDS011;7764;51.430;6.840;2023-07-02T11:16:20;13.63;;;6.78;;
15327;SDS011;7764;51.430;6.840;2023-07-02T11:18:50;13.55;;;7.00;;
15327;SDS011;7764;51.430;6.840;2023-07-02T11:21:18;14.63;;;7.78;;
15327;SDS011;7764;51.430;6.840;2023-07-02T11:23:45;13.20;;;7.22;;
15327;SDS011;7764;51.430;6.840;2023-07-02T11:26:11;14.05;;;7.30;;
15327;SDS011;7764;51.430;6.840;2023-07-02T11:28:47;13.45;;;6.70;;
15327;SDS011;7764;51.430;6.840;2023-07-02T11:31:25;11.85;;;6.93;;
15327;SDS011;7764;51.430;6.840;2023-07-02T11:33:53;12.82;;;6.65;;
15327;SDS011;7764;51.430;6.840;2023-07-02T11:36:20;13.05;;;6.45;;
15327;SDS011;7764;51.430;6.840;2023-07-02T11:38:49;11.20;;;6.18;;
15327;SDS011;7764;51.430;6.840;2023-07-02T11:41:16;11.95;;;6.65;;
15327;SDS011;7764;51.430;6.840;2023-07-02T11:43:44;11.48;;;6.18;;
15327;SDS011;7764;51.430;6.840;2023-07-02T11:46:11;13.50;;;6.93;;
15327;SDS011;7764;51.430;6.840;2023-07-02T11:48:39;11.93;;;6.20;;
15327;SDS011;7764;51.430;6.840;2023-07-02T11:51:07;15.07;;;6.43;;
15327;SDS011;7764;51.430;6.840;2023-07-02T11:53:34;12.68;;;6.78;;
15327;SDS011;7764;51.430;6.840;2023-07-02T11:56:01;13.48;;;6.43;;
15327;SDS011;7764;51.430;6.840;2023-07-02T11:58:27;11.05;;;6.13;;
15327;SDS011;7764;51.430;6.840;2023-07-02T12:00:54;13.82;;;6.55;;
15327;SDS011;7764;51.430;6.840;2023-07-02T12:03:21;13.48;;;6.97;;
15327;SDS011;7764;51.430;6.840;2023-07-02T12:05:49;11.70;;;6.75;;
15327;SDS011;7764;51.430;6.840;2023-07-02T12:08:16;15.93;;;7.38;;
15327;SDS011;7764;51.430;6.840;2023-07-02T12:10:43;13.57;;;6.90;;
15327;SDS011;7764;51.430;6.840;2023-07-02T12:13:10;12.98;;;7.10;;
15327;SDS011;7764;51.430;6.840;2023-07-02T12:15:37;15.60;;;8.00;;
15327;SDS011;7764;51.430;6.840;2023-07-02T12:18:04;13.48;;;7.00;;
15327;SDS011;7764;51.430;6.840;2023-07-02T12:20:31;11.93;;;6.43;;
15327;SDS011;7764;51.430;6.840;2023-07-02T12:22:59;13.98;;;6.72;;
15327;SDS011;7764;51.430;6.840;2023-07-02T12:25:26;13.90;;;6.93;;
15327;SDS011;7764;51.430;6.840;2023-07-02T12:27:53;11.85;;;6.82;;
15327;SDS011;7764;51.430;6.840;2023-07-02T12:30:20;12.57;;;6.82;;
15327;SDS011;7764;51.430;6.840;2023-07-02T12:32:47;14.85;;;6.88;;
15327;SDS011;7764;51.430;6.840;2023-07-02T12:35:14;13.18;;;7.07;;
15327;SDS011;7764;51.430;6.840;2023-07-02T12:37:44;12.27;;;7.38;;
15327;SDS011;7764;51.430;6.840;2023-07-02T12:40:12;12.93;;;7.07;;
15327;SDS011;7764;51.430;6.840;2023-07-02T12:42:40;12.40;;;6.75;;
15327;SDS011;7764;51.430;6.840;2023-07-02T12:45:08;12.73;;;7.25;;
15327;SDS011;7764;51.430;6.840;2023-07-02T12:47:36;13.90;;;7.60;;
15327;SDS011;7764;51.430;6.840;2023-07-02T12:50:05;13.65;;;7.10;;
15327;SDS011;7764;51.430;6.840;2023-07-02T12:52:33;11.85;;;7.38;;
15327;SDS011;7764;51.430;6.840;2023-07-02T12:55:00;14.20;;;7.30;;
15327;SDS011;7764;51.430;6.840;2023-07-02T12:57:28;13.15;;;6.93;;
15327;SDS011;7764;51.430;6.840;2023-07-02T12:59:55;13.35;;;7.70;;
15327;SDS011;7764;51.430;6.840;2023-07-02T13:02:23;13.38;;;7.57;;
15327;SDS011;7764;51.430;6.840;2023-07-02T13:04:50;16.65;;;8.48;;
15327;SDS011;7764;51.430;6.840;2023-07-02T13:07:17;13.82;;;7.82;;
15327;SDS011;7764;51.430;6.840;2023-07-02T13:09:44;18.15;;;8.38;;
15327;SDS011;7764;51.430;6.840;2023-07-02T13:12:11;14.15;;;7.85;;
15327;SDS011;7764;51.430;6.840;2023-07-02T13:14:41;13.40;;;7.90;;
15327;SDS011;7764;51.430;6.840;2023-07-02T13:17:08;15.88;;;8.27;;
15327;SDS011;7764;51.430;6.840;2023-07-02T13:19:35;16.60;;;9.27;;
15327;SDS011;7764;51.430;6.840;2023-07-02T13:22:02;15.77;;;8.10;;
15327;SDS011;7764;51.430;6.840;2023-07-02T13:24:32;15.63;;;8.98;;
15327;SDS011;7764;51.430;6.840;2023-07-02T13:27:02;15.05;;;8.32;;
15327;SDS011;7764;51.430;6.840;2023-07-02T13:29:31;28.67;;;9.45;;
15327;SDS011;7764;51.430;6.840;2023-07-02T13:31:59;19.63;;;12.48;;
15327;SDS011;7764;51.430;6.840;2023-07-02T13:34:26;14.77;;;8.52;;
15327;SDS011;7764;51.430;6.840;2023-07-02T13:36:53;18.02;;;8.48;;
15327;SDS011;7764;51.430;6.840;2023-07-02T13:39:19;16.63;;;8.90;;
15327;SDS011;7764;51.430;6.840;2023-07-02T13:41:46;18.58;;;9.38;;
15327;SDS011;7764;51.430;6.840;2023-07-02T13:44:14;16.45;;;9.07;;
15327;SDS011;7764;51.430;6.840;2023-07-02T13:46:44;16.35;;;8.60;;
15327;SDS011;7764;51.430;6.840;2023-07-02T13:49:14;19.58;;;8.70;;
15327;SDS011;7764;51.430;6.840;2023-07-02T13:51:41;16.40;;;8.55;;
15327;SDS011;7764;51.430;6.840;2023-07-02T13:54:11;18.23;;;9.95;;
15327;SDS011;7764;51.430;6.840;2023-07-02T13:56:39;16.98;;;9.30;;
15327;SDS011;7764;51.430;6.840;2023-07-02T13:59:07;17.10;;;8.82;;
15327;SDS011;7764;51.430;6.840;2023-07-02T14:01:34;15.38;;;8.63;;
15327;SDS011;7764;51.430;6.840;2023-07-02T14:04:01;14.88;;;9.00;;
15327;SDS011;7764;51.430;6.840;2023-07-02T14:06:28;16.63;;;8.35;;
15327;SDS011;7764;51.430;6.840;2023-07-02T14:08:56;15.85;;;8.50;;
15327;SDS011;7764;51.430;6.840;2023-07-02T14:11:23;16.23;;;8.70;;
15327;SDS011;7764;51.430;6.840;2023-07-02T14:13:52;16.08;;;8.45;;
15327;SDS011;7764;51.430;6.840;2023-07-02T14:16:21;15.05;;;8.77;;
15327;SDS011;7764;51.430;6.840;2023-07-02T14:18:49;17.65;;;8.88;;
15327;SDS011;7764;51.430;6.840;2023-07-02T14:21:16;14.40;;;8.27;;
15327;SDS011;7764;51.430;6.840;2023-07-02T14:23:43;17.33;;;9.20;;
15327;SDS011;7764;51.430;6.840;2023-07-02T14:26:10;16.83;;;8.95;;
15327;SDS011;7764;51.430;6.840;2023-07-02T14:28:37;18.83;;;9.85;;
15327;SDS011;7764;51.430;6.840;2023-07-02T14:31:05;18.67;;;9.25;;
15327;SDS011;7764;51.430;6.840;2023-07-02T14:33:34;17.42;;;9.18;;
15327;SDS011;7764;51.430;6.840;2023-07-02T14:36:02;17.40;;;8.48;;
15327;SDS011;7764;51.430;6.840;2023-07-02T14:38:30;20.15;;;10.25;;
15327;SDS011;7764;51.430;6.840;2023-07-02T14:40:58;19.85;;;9.60;;
15327;SDS011;7764;51.430;6.840;2023-07-02T14:43:26;17.55;;;9.55;;
15327;SDS011;7764;51.430;6.840;2023-07-02T14:45:56;16.40;;;8.70;;
15327;SDS011;7764;51.430;6.840;2023-07-02T14:48:25;16.08;;;8.95;;